CheckWX is a tool to help pilots better visualize weather data.  It is not intended as a substitute for an official pre-flight weather briefing.

13:10:37 UTC

0J4 METAR
Florala Municipal Airport
Florala, Alabama, USA
Current

1 hour ago

K0J4 161158Z AUTO 00000KT 10SM BKN007 OVC013 22/20 A2989 RMK AO2 CIG 005V012 SLP119 60004 70043 T02170200 10228 20217 51019
Observed
Oct-16 @ 11:58 UTC
Visibility
10 SM
Flight Rules
IFR
Cloud Levels
  • Broken at 700' AGL
  • Overcast at 1,300' AGL
Temperature
22°C / 72°F
Dewpoint
20°C / 68°F
Humidity
88%
Altimeter
29.89" Hg
Pressure
1012.22 hPa
24 Hour Rain
0.43"
Previous

2 hours ago

K0J4 161058Z AUTO 00000KT 10SM OVC005 22/20 A2988 RMK AO2 SLP115 T02170200
Observed
Oct-16 @ 10:58 UTC
Visibility
10 SM
Flight Rules
IFR
Cloud Levels
  • Overcast at 500' AGL
Temperature
22°C / 72°F
Dewpoint
20°C / 68°F
Humidity
88%
Altimeter
29.88" Hg
Pressure
1011.82 hPa
Previous

2 hours ago

K0J4 161050Z AUTO 00000KT 10SM BKN005 OVC070 22/20 A2988 RMK AO2 T02170200
Observed
Oct-16 @ 10:50 UTC
Visibility
10 SM
Flight Rules
IFR
Cloud Levels
  • Broken at 500' AGL
  • Overcast at 7,000' AGL
Temperature
22°C / 72°F
Dewpoint
20°C / 68°F
Humidity
88%
Altimeter
29.88" Hg
Pressure
1011.82 hPa